createdAt,value
2018-07-27T00:04:46.052Z,4.90
2018-07-27T00:09:49.694Z,4.87
2018-07-27T00:14:53.551Z,4.73
2018-07-27T00:19:57.375Z,5.40
2018-07-27T00:25:01.262Z,5.63
2018-07-27T00:30:06.375Z,6.03
2018-07-27T00:35:09.644Z,6.57
2018-07-27T00:40:12.904Z,6.73
2018-07-27T00:45:16.159Z,5.87
2018-07-27T00:50:19.986Z,5.97
2018-07-27T00:55:23.290Z,6.63
2018-07-27T01:00:26.659Z,5.77
2018-07-27T01:05:30.138Z,5.50
2018-07-27T01:10:34.117Z,6.03
2018-07-27T01:15:37.407Z,6.03
2018-07-27T01:20:40.943Z,6.17
2018-07-27T01:25:44.216Z,7.73
2018-07-27T01:30:47.496Z,6.10
2018-07-27T01:35:51.416Z,5.90
2018-07-27T01:40:55.476Z,5.23
2018-07-27T01:45:59.461Z,5.63
2018-07-27T01:51:03.284Z,4.90
2018-07-27T01:56:06.559Z,5.07
2018-07-27T02:01:10.361Z,5.20
2018-07-27T02:06:14.113Z,5.40
2018-07-27T02:11:17.669Z,5.40
2018-07-27T02:16:20.953Z,5.47
2018-07-27T02:21:24.230Z,6.00
2018-07-27T02:26:27.600Z,6.23
2018-07-27T02:31:31.115Z,5.97
2018-07-27T02:36:34.447Z,6.37
2018-07-27T02:41:38.184Z,6.10
2018-07-27T02:46:42.664Z,6.27
2018-07-27T02:51:46.429Z,6.57
2018-07-27T02:56:51.744Z,6.33
2018-07-27T03:01:55.622Z,7.10
2018-07-27T03:06:59.343Z,7.27
2018-07-27T03:12:03.692Z,6.47
2018-07-27T03:17:07.480Z,6.27
2018-07-27T03:22:11.157Z,7.00
2018-07-27T03:27:14.937Z,6.40
2018-07-27T03:32:18.265Z,6.27
2018-07-27T03:37:21.262Z,6.70
2018-07-27T03:42:24.522Z,5.97
2018-07-27T03:47:27.808Z,5.93
2018-07-27T03:52:31.079Z,6.43
2018-07-27T03:57:34.354Z,5.87
2018-07-27T04:02:37.619Z,6.87
2018-07-27T04:07:40.900Z,5.60
2018-07-27T04:12:44.306Z,5.90
2018-07-27T04:18:00.681Z,6.50
2018-07-27T04:23:03.982Z,6.13
2018-07-27T04:28:07.255Z,6.17
2018-07-27T04:33:10.545Z,5.70
2018-07-27T04:38:13.826Z,6.10
2018-07-27T04:43:17.080Z,6.10
2018-07-27T04:48:20.367Z,6.73
2018-07-27T04:53:23.648Z,5.70
2018-07-27T04:58:26.912Z,7.00
2018-07-27T05:03:30.188Z,6.53
2018-07-27T05:08:37.501Z,6.70
2018-07-27T05:13:40.782Z,6.87
2018-07-27T05:18:44.079Z,7.20
2018-07-27T05:23:47.356Z,6.10
2018-07-27T05:28:50.607Z,6.30
2018-07-27T05:33:54.074Z,5.80
2018-07-27T05:38:57.581Z,6.43
2018-07-27T05:44:00.850Z,6.27
2018-07-27T05:49:04.127Z,5.17
2018-07-27T05:54:07.471Z,5.40
2018-07-27T05:59:10.729Z,5.62
2018-07-27T06:04:14.024Z,5.67
2018-07-27T06:09:17.295Z,5.25
2018-07-27T06:14:20.632Z,5.47
2018-07-27T06:19:23.648Z,5.65
2018-07-27T06:24:28.769Z,5.67
2018-07-27T06:29:31.982Z,5.00
2018-07-27T06:34:35.243Z,4.65
2018-07-27T06:39:38.511Z,4.85
2018-07-27T06:44:41.850Z,5.22
2018-07-27T06:49:45.126Z,5.00
2018-07-27T06:54:48.394Z,4.90
2018-07-27T06:59:51.670Z,3.80
2018-07-27T07:04:54.948Z,3.45
2018-07-27T07:09:58.246Z,3.42
2018-07-27T07:15:01.521Z,3.10
2018-07-27T07:20:05.829Z,4.17
2018-07-27T07:25:09.185Z,4.10
2018-07-27T07:30:12.439Z,4.25
2018-07-27T07:35:15.687Z,3.95
2018-07-27T07:40:18.988Z,4.37
2018-07-27T07:45:22.267Z,4.58
2018-07-27T07:50:25.808Z,4.05
2018-07-27T07:55:28.831Z,4.28
2018-07-27T08:00:32.099Z,4.05
2018-07-27T08:05:35.368Z,4.30
2018-07-27T08:10:38.652Z,4.70
2018-07-27T08:15:42.521Z,4.17
2018-07-27T08:20:46.511Z,3.70
2018-07-27T08:26:55.659Z,4.20
2018-07-27T08:31:59.089Z,3.92
2018-07-27T08:37:03.140Z,4.10
2018-07-27T08:42:06.920Z,4.37
2018-07-27T08:47:10.196Z,4.20
2018-07-27T08:53:17.433Z,4.72
2018-07-27T08:58:20.775Z,4.50
2018-07-27T09:03:26.404Z,3.62
2018-07-27T09:08:30.521Z,3.85
2018-07-27T09:13:34.046Z,3.65
2018-07-27T09:18:39.860Z,3.27
2018-07-27T09:23:44.255Z,3.10
2018-07-27T09:28:49.351Z,3.72
2018-07-27T09:33:54.609Z,3.08
2018-07-27T09:39:00.242Z,3.50
2018-07-27T09:44:05.657Z,4.62
2018-07-27T09:49:10.026Z,3.75
2018-07-27T09:54:14.518Z,3.72
2018-07-27T09:59:19.391Z,3.60
2018-07-27T10:04:22.841Z,3.75
2018-07-27T10:09:25.844Z,3.92
2018-07-27T10:14:31.153Z,3.40
2018-07-27T10:19:34.195Z,3.40
2018-07-27T10:24:39.456Z,3.70
2018-07-27T10:29:44.950Z,3.42
2018-07-27T10:34:51.229Z,3.55
2018-07-27T10:39:55.856Z,3.87
2018-07-27T10:45:01.017Z,3.77
2018-07-27T10:50:07.328Z,4.00
2018-07-27T10:55:10.772Z,3.85
2018-07-27T11:00:16.603Z,3.65
2018-07-27T11:05:19.939Z,3.30
2018-07-27T11:10:23.304Z,3.65
2018-07-27T11:15:29.317Z,3.37
2018-07-27T11:20:33.402Z,3.25
2018-07-27T11:25:36.762Z,3.80
2018-07-27T11:30:39.996Z,3.12
2018-07-27T11:35:43.257Z,3.45
2018-07-27T11:40:46.507Z,3.55
2018-07-27T11:45:49.777Z,3.50
2018-07-27T11:50:55.186Z,3.40
2018-07-27T11:55:58.999Z,3.60
2018-07-27T12:01:02.721Z,3.65
2018-07-27T12:06:07.787Z,3.30
2018-07-27T12:11:13.334Z,3.10
2018-07-27T12:16:16.948Z,3.67
2018-07-27T12:21:22.123Z,3.50
2018-07-27T12:26:26.533Z,3.47
2018-07-27T12:31:30.999Z,3.75
2018-07-27T12:36:34.756Z,3.47
2018-07-27T12:41:39.627Z,3.87
2018-07-27T12:46:43.631Z,3.45
2018-07-27T12:51:47.203Z,3.20
2018-07-27T12:56:50.495Z,3.80
2018-07-27T13:01:54.960Z,3.52
2018-07-27T13:06:58.892Z,3.58
2018-07-27T13:12:03.716Z,3.75
2018-07-27T13:17:07.692Z,3.62
2018-07-27T13:22:12.242Z,3.87
2018-07-27T13:27:15.539Z,4.40
2018-07-27T13:32:18.816Z,4.30
2018-07-27T13:37:23.504Z,3.62
2018-07-27T13:42:28.051Z,3.85
2018-07-27T13:47:31.383Z,3.70
2018-07-27T13:52:34.769Z,3.85
2018-07-27T13:57:39.009Z,3.40
2018-07-27T14:02:42.246Z,3.50
2018-07-27T14:07:45.938Z,3.75
2018-07-27T14:12:49.221Z,2.90
2018-07-27T14:17:52.513Z,3.47
2018-07-27T14:22:55.799Z,3.65
2018-07-27T14:27:59.136Z,4.20
2018-07-27T14:33:02.688Z,3.87
2018-07-27T14:38:05.695Z,4.17
2018-07-27T14:43:09.179Z,3.85
2018-07-27T14:48:12.488Z,4.60
2018-07-27T14:53:15.788Z,4.45
2018-07-27T14:58:19.127Z,3.90
2018-07-27T15:03:22.321Z,4.22
2018-07-27T15:08:25.635Z,4.20
2018-07-27T15:13:28.980Z,4.22
2018-07-27T15:18:32.293Z,4.30
2018-07-27T15:23:35.302Z,4.40
2018-07-27T15:28:38.678Z,3.85
2018-07-27T15:33:41.726Z,3.80
2018-07-27T15:38:45.453Z,3.92
2018-07-27T15:43:48.837Z,4.00
2018-07-27T15:48:53.394Z,3.85
2018-07-27T15:53:56.665Z,3.27
2018-07-27T15:58:59.952Z,3.72
2018-07-27T16:04:03.531Z,3.30
2018-07-27T16:09:08.470Z,3.50
2018-07-27T16:14:12.154Z,3.98
2018-07-27T16:19:15.795Z,3.92
2018-07-27T16:24:19.147Z,3.40
2018-07-27T16:29:22.560Z,3.58
2018-07-27T16:34:26.249Z,3.90
2018-07-27T16:39:29.540Z,4.15
2018-07-27T16:44:32.831Z,3.60
2018-07-27T16:49:36.118Z,3.75
2018-07-27T16:54:39.387Z,3.95
2018-07-27T16:59:42.705Z,3.77
2018-07-27T17:04:46.320Z,3.75
2018-07-27T17:09:49.622Z,4.12
2018-07-27T17:14:52.910Z,4.17
2018-07-27T17:19:56.216Z,3.92
2018-07-27T17:24:59.618Z,3.80
2018-07-27T17:30:02.550Z,3.90
2018-07-27T17:35:05.861Z,3.80
2018-07-27T17:40:09.624Z,3.77
2018-07-27T17:45:12.930Z,3.77
2018-07-27T17:50:16.226Z,5.03
2018-07-27T17:55:19.350Z,5.08
2018-07-27T18:00:22.651Z,4.28
2018-07-27T18:05:25.634Z,4.70
2018-07-27T18:10:28.922Z,4.58
2018-07-27T18:15:32.231Z,4.35
2018-07-27T18:20:35.514Z,3.83
2018-07-27T18:25:38.533Z,4.20
2018-07-27T18:30:41.829Z,4.33
2018-07-27T18:35:45.087Z,4.15
2018-07-27T18:40:48.514Z,4.28
2018-07-27T18:45:51.844Z,4.33
2018-07-27T18:50:54.846Z,4.40
2018-07-27T18:55:57.867Z,4.35
2018-07-27T19:01:01.179Z,3.80
2018-07-27T19:06:04.511Z,4.07
2018-07-27T19:11:07.794Z,4.30
2018-07-27T19:16:11.307Z,4.83
2018-07-27T19:21:14.546Z,4.33
2018-07-27T19:26:17.794Z,4.77
2018-07-27T19:31:21.203Z,8.00
2018-07-27T19:36:24.496Z,5.93
2018-07-27T19:41:28.542Z,4.83
2018-07-27T19:46:31.793Z,5.50
2018-07-27T19:51:35.066Z,8.43
2018-07-27T19:56:38.402Z,8.57
2018-07-27T20:01:41.428Z,10.50
2018-07-27T20:06:44.735Z,16.57
2018-07-27T20:11:50.044Z,24.13
2018-07-27T20:16:53.353Z,24.43
2018-07-27T20:21:56.383Z,22.97
2018-07-27T20:26:59.668Z,37.60
2018-07-27T20:32:02.938Z,42.90
2018-07-27T20:37:06.702Z,36.93
2018-07-27T20:42:10.017Z,28.90
2018-07-27T20:47:13.338Z,20.90
2018-07-27T20:52:16.653Z,10.17
2018-07-27T20:57:19.678Z,8.87
2018-07-27T21:02:22.711Z,9.67
2018-07-27T21:07:26.029Z,10.00
2018-07-27T21:12:29.315Z,10.70
2018-07-27T21:17:34.410Z,11.10
2018-07-27T21:22:37.766Z,10.47
2018-07-27T21:27:41.147Z,19.87
2018-07-27T21:32:44.641Z,11.60
2018-07-27T21:37:48.126Z,8.03
2018-07-27T21:42:51.404Z,6.20
2018-07-27T21:47:54.802Z,5.93
2018-07-27T21:52:57.817Z,6.23
2018-07-27T21:58:01.944Z,6.57
2018-07-27T22:03:05.542Z,6.63
2018-07-27T22:08:09.693Z,6.10
2018-07-27T22:13:13.621Z,6.17
2018-07-27T22:18:17.375Z,6.70
2018-07-27T22:23:21.513Z,6.90
2018-07-27T22:28:25.009Z,6.67
2018-07-27T22:33:28.420Z,7.23
2018-07-27T22:38:31.736Z,7.03
2018-07-27T22:43:35.035Z,7.53
2018-07-27T22:48:38.482Z,7.53
2018-07-27T22:53:42.339Z,7.53
2018-07-27T22:58:46.358Z,8.07
2018-07-27T23:03:49.717Z,7.97
2018-07-27T23:08:53.071Z,7.60
2018-07-27T23:13:56.795Z,8.00
2018-07-27T23:19:00.580Z,8.27
2018-07-27T23:24:04.130Z,8.03
2018-07-27T23:29:07.606Z,8.63
2018-07-27T23:34:10.884Z,7.07
2018-07-27T23:39:14.560Z,7.77
2018-07-27T23:44:17.811Z,8.03
2018-07-27T23:49:21.172Z,7.90
2018-07-27T23:54:24.579Z,8.10
2018-07-27T23:59:27.929Z,7.97
